sensor_id;sensor_type;location;lat;lon;timestamp;temperature;humidity
71942;DHT22;59997;53.300;-6.260;2022-09-28T00:01:36;8.37;87.53
71942;DHT22;59997;53.300;-6.260;2022-09-28T00:04:02;8.24;87.70
71942;DHT22;59997;53.300;-6.260;2022-09-28T00:06:28;8.14;88.03
71942;DHT22;59997;53.300;-6.260;2022-09-28T00:08:55;8.10;88.37
71942;DHT22;59997;53.300;-6.260;2022-09-28T00:11:22;8.19;88.32
71942;DHT22;59997;53.300;-6.260;2022-09-28T00:13:53;8.33;88.07
71942;DHT22;59997;53.300;-6.260;2022-09-28T00:16:22;8.42;87.76
71942;DHT22;59997;53.300;-6.260;2022-09-28T00:18:48;8.44;87.71
71942;DHT22;59997;53.300;-6.260;2022-09-28T00:21:17;8.54;87.59
71942;DHT22;59997;53.300;-6.260;2022-09-28T00:23:43;8.62;87.27
71942;DHT22;59997;53.300;-6.260;2022-09-28T00:26:30;8.70;87.13
71942;DHT22;59997;53.300;-6.260;2022-09-28T00:28:57;8.76;87.01
71942;DHT22;59997;53.300;-6.260;2022-09-28T00:31:24;8.73;87.02
71942;DHT22;59997;53.300;-6.260;2022-09-28T00:33:51;8.83;86.93
71942;DHT22;59997;53.300;-6.260;2022-09-28T00:36:18;8.84;86.87
71942;DHT22;59997;53.300;-6.260;2022-09-28T00:38:44;8.81;86.86
71942;DHT22;59997;53.300;-6.260;2022-09-28T00:41:10;8.87;86.76
71942;DHT22;59997;53.300;-6.260;2022-09-28T00:43:36;8.84;86.71
71942;DHT22;59997;53.300;-6.260;2022-09-28T00:46:27;8.79;86.90
71942;DHT22;59997;53.300;-6.260;2022-09-28T00:48:59;8.72;86.92
71942;DHT22;59997;53.300;-6.260;2022-09-28T00:51:29;8.62;87.17
71942;DHT22;59997;53.300;-6.260;2022-09-28T00:53:55;8.63;87.14
71942;DHT22;59997;53.300;-6.260;2022-09-28T00:56:24;8.66;87.11
71942;DHT22;59997;53.300;-6.260;2022-09-28T00:58:52;8.63;87.07
71942;DHT22;59997;53.300;-6.260;2022-09-28T01:01:18;8.58;87.30
71942;DHT22;59997;53.300;-6.260;2022-09-28T01:03:45;8.58;87.21
71942;DHT22;59997;53.300;-6.260;2022-09-28T01:06:21;8.56;87.21
71942;DHT22;59997;53.300;-6.260;2022-09-28T01:08:49;8.49;87.43
71942;DHT22;59997;53.300;-6.260;2022-09-28T01:11:17;8.49;87.36
71942;DHT22;59997;53.300;-6.260;2022-09-28T01:13:43;8.56;87.38
71942;DHT22;59997;53.300;-6.260;2022-09-28T01:19:24;8.69;87.06
71942;DHT22;59997;53.300;-6.260;2022-09-28T01:24:46;8.73;86.82
71942;DHT22;59997;53.300;-6.260;2022-09-28T01:27:15;8.80;86.72
71942;DHT22;59997;53.300;-6.260;2022-09-28T01:29:46;8.79;86.62
71942;DHT22;59997;53.300;-6.260;2022-09-28T01:32:31;8.77;86.67
71942;DHT22;59997;53.300;-6.260;2022-09-28T01:35:19;8.80;86.46
71942;DHT22;59997;53.300;-6.260;2022-09-28T01:38:00;8.87;86.41
71942;DHT22;59997;53.300;-6.260;2022-09-28T01:40:27;8.86;86.45
71942;DHT22;59997;53.300;-6.260;2022-09-28T01:42:58;8.81;86.60
71942;DHT22;59997;53.300;-6.260;2022-09-28T01:45:29;8.77;86.81
71942;DHT22;59997;53.300;-6.260;2022-09-28T01:48:00;8.83;86.47
71942;DHT22;59997;53.300;-6.260;2022-09-28T01:50:28;8.81;86.58
71942;DHT22;59997;53.300;-6.260;2022-09-28T01:53:32;8.81;86.58
71942;DHT22;59997;53.300;-6.260;2022-09-28T01:55:53;8.89;86.48
71942;DHT22;59997;53.300;-6.260;2022-09-28T01:58:35;8.87;86.39
71942;DHT22;59997;53.300;-6.260;2022-09-28T02:01:07;8.90;86.31
71942;DHT22;59997;53.300;-6.260;2022-09-28T02:03:46;8.87;86.48
71942;DHT22;59997;53.300;-6.260;2022-09-28T02:06:22;8.86;86.43
71942;DHT22;59997;53.300;-6.260;2022-09-28T02:08:56;8.76;86.72
71942;DHT22;59997;53.300;-6.260;2022-09-28T02:11:23;8.80;86.79
71942;DHT22;59997;53.300;-6.260;2022-09-28T02:14:03;8.79;86.75
71942;DHT22;59997;53.300;-6.260;2022-09-28T02:16:39;8.81;86.62
71942;DHT22;59997;53.300;-6.260;2022-09-28T02:19:07;8.76;86.91
71942;DHT22;59997;53.300;-6.260;2022-09-28T02:21:42;8.76;86.90
71942;DHT22;59997;53.300;-6.260;2022-09-28T02:24:15;8.72;87.03
71942;DHT22;59997;53.300;-6.260;2022-09-28T02:26:43;8.66;87.22
71942;DHT22;59997;53.300;-6.260;2022-09-28T02:29:10;8.68;87.05
71942;DHT22;59997;53.300;-6.260;2022-09-28T02:31:36;8.65;87.16
71942;DHT22;59997;53.300;-6.260;2022-09-28T02:34:01;8.68;87.27
71942;DHT22;59997;53.300;-6.260;2022-09-28T02:36:27;8.69;87.23
71942;DHT22;59997;53.300;-6.260;2022-09-28T02:38:53;8.69;87.22
71942;DHT22;59997;53.300;-6.260;2022-09-28T02:44:37;8.63;87.39
71942;DHT22;59997;53.300;-6.260;2022-09-28T02:50:06;8.62;87.64
71942;DHT22;59997;53.300;-6.260;2022-09-28T02:52:48;8.61;87.73
71942;DHT22;59997;53.300;-6.260;2022-09-28T02:58:37;8.62;87.56
71942;DHT22;59997;53.300;-6.260;2022-09-28T03:04:26;8.52;88.00
71942;DHT22;59997;53.300;-6.260;2022-09-28T03:07:21;8.56;87.97
71942;DHT22;59997;53.300;-6.260;2022-09-28T03:12:42;8.61;87.92
71942;DHT22;59997;53.300;-6.260;2022-09-28T03:15:10;8.63;87.91
71942;DHT22;59997;53.300;-6.260;2022-09-28T03:17:37;8.66;87.80
71942;DHT22;59997;53.300;-6.260;2022-09-28T03:20:03;8.61;87.88
71942;DHT22;59997;53.300;-6.260;2022-09-28T03:22:28;8.59;87.95
71942;DHT22;59997;53.300;-6.260;2022-09-28T03:24:54;8.49;88.17
71942;DHT22;59997;53.300;-6.260;2022-09-28T03:27:19;8.51;88.09
71942;DHT22;59997;53.300;-6.260;2022-09-28T03:29:45;8.46;88.24
71942;DHT22;59997;53.300;-6.260;2022-09-28T03:32:10;8.37;88.56
71942;DHT22;59997;53.300;-6.260;2022-09-28T03:34:36;8.33;88.69
71942;DHT22;59997;53.300;-6.260;2022-09-28T03:37:01;8.37;88.58
71942;DHT22;59997;53.300;-6.260;2022-09-28T03:39:26;8.48;88.48
71942;DHT22;59997;53.300;-6.260;2022-09-28T03:41:52;8.52;88.25
71942;DHT22;59997;53.300;-6.260;2022-09-28T03:44:17;8.55;88.24
71942;DHT22;59997;53.300;-6.260;2022-09-28T03:46:43;8.56;88.38
71942;DHT22;59997;53.300;-6.260;2022-09-28T03:49:09;8.56;88.32
71942;DHT22;59997;53.300;-6.260;2022-09-28T03:51:34;8.56;88.28
71942;DHT22;59997;53.300;-6.260;2022-09-28T03:54:00;8.56;88.40
71942;DHT22;59997;53.300;-6.260;2022-09-28T03:56:25;8.66;88.14
71942;DHT22;59997;53.300;-6.260;2022-09-28T03:58:51;8.72;88.03
71942;DHT22;59997;53.300;-6.260;2022-09-28T04:01:16;8.73;87.92
71942;DHT22;59997;53.300;-6.260;2022-09-28T04:03:42;8.76;87.81
71942;DHT22;59997;53.300;-6.260;2022-09-28T04:06:08;8.77;87.72
71942;DHT22;59997;53.300;-6.260;2022-09-28T04:08:33;8.77;87.78
71942;DHT22;59997;53.300;-6.260;2022-09-28T04:11:00;8.77;87.81
71942;DHT22;59997;53.300;-6.260;2022-09-28T04:13:27;8.84;87.61
71942;DHT22;59997;53.300;-6.260;2022-09-28T04:15:54;8.84;87.62
71942;DHT22;59997;53.300;-6.260;2022-09-28T04:18:20;8.81;87.76
71942;DHT22;59997;53.300;-6.260;2022-09-28T04:20:47;8.84;87.59
71942;DHT22;59997;53.300;-6.260;2022-09-28T04:23:14;8.76;87.88
71942;DHT22;59997;53.300;-6.260;2022-09-28T04:25:39;8.81;87.73
71942;DHT22;59997;53.300;-6.260;2022-09-28T04:28:05;8.84;87.74
71942;DHT22;59997;53.300;-6.260;2022-09-28T04:30:49;8.86;87.88
71942;DHT22;59997;53.300;-6.260;2022-09-28T04:33:14;8.86;87.68
71942;DHT22;59997;53.300;-6.260;2022-09-28T04:35:40;8.87;87.69
71942;DHT22;59997;53.300;-6.260;2022-09-28T04:38:05;8.91;87.52
71942;DHT22;59997;53.300;-6.260;2022-09-28T04:40:31;8.89;87.53
71942;DHT22;59997;53.300;-6.260;2022-09-28T04:42:56;8.86;87.76
71942;DHT22;59997;53.300;-6.260;2022-09-28T04:45:22;8.89;87.82
71942;DHT22;59997;53.300;-6.260;2022-09-28T04:47:50;8.89;87.55
71942;DHT22;59997;53.300;-6.260;2022-09-28T04:50:16;8.84;87.65
71942;DHT22;59997;53.300;-6.260;2022-09-28T04:52:42;8.76;87.94
71942;DHT22;59997;53.300;-6.260;2022-09-28T04:55:11;8.76;88.05
71942;DHT22;59997;53.300;-6.260;2022-09-28T04:57:37;8.73;88.10
71942;DHT22;59997;53.300;-6.260;2022-09-28T05:00:03;8.68;88.27
71942;DHT22;59997;53.300;-6.260;2022-09-28T05:02:28;8.63;88.30
71942;DHT22;59997;53.300;-6.260;2022-09-28T05:04:54;8.63;88.28
71942;DHT22;59997;53.300;-6.260;2022-09-28T05:07:20;8.63;88.17
71942;DHT22;59997;53.300;-6.260;2022-09-28T05:09:46;8.54;88.42
71942;DHT22;59997;53.300;-6.260;2022-09-28T05:12:11;8.45;88.58
71942;DHT22;59997;53.300;-6.260;2022-09-28T05:14:37;8.44;88.68
71942;DHT22;59997;53.300;-6.260;2022-09-28T05:17:02;8.42;88.72
71942;DHT22;59997;53.300;-6.260;2022-09-28T05:19:28;8.40;88.76
71942;DHT22;59997;53.300;-6.260;2022-09-28T05:21:54;8.34;88.88
71942;DHT22;59997;53.300;-6.260;2022-09-28T05:24:22;8.26;88.98
71942;DHT22;59997;53.300;-6.260;2022-09-28T05:26:48;8.23;89.09
71942;DHT22;59997;53.300;-6.260;2022-09-28T05:29:13;8.20;89.18
71942;DHT22;59997;53.300;-6.260;2022-09-28T05:31:39;8.16;89.16
71942;DHT22;59997;53.300;-6.260;2022-09-28T05:34:04;8.09;89.30
71942;DHT22;59997;53.300;-6.260;2022-09-28T05:36:30;7.94;89.43
71942;DHT22;59997;53.300;-6.260;2022-09-28T05:38:57;7.87;89.70
71942;DHT22;59997;53.300;-6.260;2022-09-28T05:41:22;7.71;89.95
71942;DHT22;59997;53.300;-6.260;2022-09-28T05:43:48;7.62;90.16
71942;DHT22;59997;53.300;-6.260;2022-09-28T05:46:15;7.64;90.37
71942;DHT22;59997;53.300;-6.260;2022-09-28T05:48:41;7.74;90.38
71942;DHT22;59997;53.300;-6.260;2022-09-28T05:51:07;7.82;90.22
71942;DHT22;59997;53.300;-6.260;2022-09-28T05:53:34;7.82;90.15
71942;DHT22;59997;53.300;-6.260;2022-09-28T05:56:00;7.81;90.16
71942;DHT22;59997;53.300;-6.260;2022-09-28T05:58:26;7.82;90.06
71942;DHT22;59997;53.300;-6.260;2022-09-28T06:00:55;7.86;90.01
71942;DHT22;59997;53.300;-6.260;2022-09-28T06:03:21;7.87;89.90
71942;DHT22;59997;53.300;-6.260;2022-09-28T06:05:47;7.87;89.84
71942;DHT22;59997;53.300;-6.260;2022-09-28T06:08:13;7.76;89.91
71942;DHT22;59997;53.300;-6.260;2022-09-28T06:10:38;7.69;90.10
71942;DHT22;59997;53.300;-6.260;2022-09-28T06:13:04;7.74;90.21
71942;DHT22;59997;53.300;-6.260;2022-09-28T06:15:32;7.72;90.17
71942;DHT22;59997;53.300;-6.260;2022-09-28T06:18:06;7.69;90.24
71942;DHT22;59997;53.300;-6.260;2022-09-28T06:20:34;7.61;90.23
71942;DHT22;59997;53.300;-6.260;2022-09-28T06:23:00;7.54;90.53
71942;DHT22;59997;53.300;-6.260;2022-09-28T06:25:25;7.58;90.64
71942;DHT22;59997;53.300;-6.260;2022-09-28T06:27:56;7.58;90.62
71942;DHT22;59997;53.300;-6.260;2022-09-28T06:30:23;7.59;90.67
71942;DHT22;59997;53.300;-6.260;2022-09-28T06:32:52;7.51;90.63
71942;DHT22;59997;53.300;-6.260;2022-09-28T06:35:19;7.51;90.81
71942;DHT22;59997;53.300;-6.260;2022-09-28T06:37:45;7.50;90.81
71942;DHT22;59997;53.300;-6.260;2022-09-28T06:40:12;7.50;91.01
71942;DHT22;59997;53.300;-6.260;2022-09-28T06:42:37;7.43;90.99
71942;DHT22;59997;53.300;-6.260;2022-09-28T06:45:03;7.50;91.03
71942;DHT22;59997;53.300;-6.260;2022-09-28T06:47:30;7.52;91.09
71942;DHT22;59997;53.300;-6.260;2022-09-28T06:49:57;7.61;90.96
71942;DHT22;59997;53.300;-6.260;2022-09-28T06:52:23;7.54;90.93
71942;DHT22;59997;53.300;-6.260;2022-09-28T06:54:48;7.62;90.95
71942;DHT22;59997;53.300;-6.260;2022-09-28T06:57:14;7.62;90.82
71942;DHT22;59997;53.300;-6.260;2022-09-28T06:59:39;7.67;90.88
71942;DHT22;59997;53.300;-6.260;2022-09-28T07:02:09;7.68;90.74
71942;DHT22;59997;53.300;-6.260;2022-09-28T07:04:34;7.76;90.69
71942;DHT22;59997;53.300;-6.260;2022-09-28T07:07:00;7.74;90.68
71942;DHT22;59997;53.300;-6.260;2022-09-28T07:09:25;7.75;90.73
71942;DHT22;59997;53.300;-6.260;2022-09-28T07:11:51;7.79;90.74
71942;DHT22;59997;53.300;-6.260;2022-09-28T07:14:17;7.87;90.65
71942;DHT22;59997;53.300;-6.260;2022-09-28T07:16:44;7.89;90.58
71942;DHT22;59997;53.300;-6.260;2022-09-28T07:19:10;8.00;90.43
71942;DHT22;59997;53.300;-6.260;2022-09-28T07:21:36;8.14;90.16
71942;DHT22;59997;53.300;-6.260;2022-09-28T07:24:01;8.23;89.85
71942;DHT22;59997;53.300;-6.260;2022-09-28T07:26:27;8.24;89.86
71942;DHT22;59997;53.300;-6.260;2022-09-28T07:28:52;8.28;89.60
71942;DHT22;59997;53.300;-6.260;2022-09-28T07:31:20;8.28;89.67
71942;DHT22;59997;53.300;-6.260;2022-09-28T07:33:48;8.35;89.61
71942;DHT22;59997;53.300;-6.260;2022-09-28T07:36:15;8.44;89.46
71942;DHT22;59997;53.300;-6.260;2022-09-28T07:38:42;8.58;89.20
71942;DHT22;59997;53.300;-6.260;2022-09-28T07:41:08;8.72;88.90
71942;DHT22;59997;53.300;-6.260;2022-09-28T07:43:37;8.81;88.68
71942;DHT22;59997;53.300;-6.260;2022-09-28T07:46:04;8.81;88.59
71942;DHT22;59997;53.300;-6.260;2022-09-28T07:48:34;8.81;88.44
71942;DHT22;59997;53.300;-6.260;2022-09-28T07:51:00;8.72;88.65
71942;DHT22;59997;53.300;-6.260;2022-09-28T07:53:26;8.63;88.88
71942;DHT22;59997;53.300;-6.260;2022-09-28T07:55:57;8.65;88.97
71942;DHT22;59997;53.300;-6.260;2022-09-28T07:58:26;8.73;88.87
71942;DHT22;59997;53.300;-6.260;2022-09-28T08:00:51;8.79;88.92
71942;DHT22;59997;53.300;-6.260;2022-09-28T08:03:18;9.06;88.62
71942;DHT22;59997;53.300;-6.260;2022-09-28T08:05:44;9.53;87.78
71942;DHT22;59997;53.300;-6.260;2022-09-28T08:08:11;9.91;86.68
71942;DHT22;59997;53.300;-6.260;2022-09-28T08:10:36;10.26;85.19
71942;DHT22;59997;53.300;-6.260;2022-09-28T08:13:03;10.66;84.10
71942;DHT22;59997;53.300;-6.260;2022-09-28T08:15:31;11.10;82.36
71942;DHT22;59997;53.300;-6.260;2022-09-28T08:18:04;11.07;82.43
71942;DHT22;59997;53.300;-6.260;2022-09-28T08:20:31;11.02;82.23
71942;DHT22;59997;53.300;-6.260;2022-09-28T08:23:15;11.00;82.04
71942;DHT22;59997;53.300;-6.260;2022-09-28T08:25:48;11.00;81.93
71942;DHT22;59997;53.300;-6.260;2022-09-28T08:28:15;11.30;81.81
71942;DHT22;59997;53.300;-6.260;2022-09-28T08:30:42;11.36;80.65
71942;DHT22;59997;53.300;-6.260;2022-09-28T08:33:14;11.25;81.33
71942;DHT22;59997;53.300;-6.260;2022-09-28T08:35:40;11.21;81.24
71942;DHT22;59997;53.300;-6.260;2022-09-28T08:38:07;11.29;81.52
71942;DHT22;59997;53.300;-6.260;2022-09-28T08:46:16;11.94;80.25
71942;DHT22;59997;53.300;-6.260;2022-09-28T08:49:00;11.92;79.48
71942;DHT22;59997;53.300;-6.260;2022-09-28T08:51:55;11.74;79.90
71942;DHT22;59997;53.300;-6.260;2022-09-28T08:57:19;12.15;78.60
71942;DHT22;59997;53.300;-6.260;2022-09-28T08:59:55;12.06;78.48
71942;DHT22;59997;53.300;-6.260;2022-09-28T09:02:41;12.01;79.01
71942;DHT22;59997;53.300;-6.260;2022-09-28T09:05:13;11.98;78.67
71942;DHT22;59997;53.300;-6.260;2022-09-28T09:08:19;12.60;76.65
71942;DHT22;59997;53.300;-6.260;2022-09-28T09:13:29;12.28;77.65
71942;DHT22;59997;53.300;-6.260;2022-09-28T09:18:55;13.50;73.93
71942;DHT22;59997;53.300;-6.260;2022-09-28T09:24:02;12.84;76.77
71942;DHT22;59997;53.300;-6.260;2022-09-28T09:26:39;12.98;75.66
71942;DHT22;59997;53.300;-6.260;2022-09-28T09:43:24;12.82;75.74
71942;DHT22;59997;53.300;-6.260;2022-09-28T09:48:46;12.54;76.77
71942;DHT22;59997;53.300;-6.260;2022-09-28T09:51:46;13.06;74.71
71942;DHT22;59997;53.300;-6.260;2022-09-28T10:00:13;13.37;75.13
71942;DHT22;59997;53.300;-6.260;2022-09-28T10:02:41;13.22;73.91
71942;DHT22;59997;53.300;-6.260;2022-09-28T10:10:20;13.46;73.40
71942;DHT22;59997;53.300;-6.260;2022-09-28T10:12:48;13.57;72.85
71942;DHT22;59997;53.300;-6.260;2022-09-28T10:15:26;13.55;72.14
71942;DHT22;59997;53.300;-6.260;2022-09-28T10:17:54;13.47;72.56
71942;DHT22;59997;53.300;-6.260;2022-09-28T10:20:21;13.62;71.87
71942;DHT22;59997;53.300;-6.260;2022-09-28T10:22:50;14.65;69.75
71942;DHT22;59997;53.300;-6.260;2022-09-28T10:25:16;14.26;70.91
71942;DHT22;59997;53.300;-6.260;2022-09-28T10:27:43;14.37;70.24
71942;DHT22;59997;53.300;-6.260;2022-09-28T10:30:17;14.33;69.79
71942;DHT22;59997;53.300;-6.260;2022-09-28T10:32:48;13.82;71.11
71942;DHT22;59997;53.300;-6.260;2022-09-28T10:37:52;13.40;73.20
71942;DHT22;59997;53.300;-6.260;2022-09-28T10:43:28;13.27;73.46
71942;DHT22;59997;53.300;-6.260;2022-09-28T10:46:06;13.24;73.53
71942;DHT22;59997;53.300;-6.260;2022-09-28T10:49:07;13.36;73.10
71942;DHT22;59997;53.300;-6.260;2022-09-28T10:51:45;13.06;74.36
71942;DHT22;59997;53.300;-6.260;2022-09-28T10:54:20;12.88;75.03
71942;DHT22;59997;53.300;-6.260;2022-09-28T10:56:47;12.63;75.94
71942;DHT22;59997;53.300;-6.260;2022-09-28T11:02:08;12.29;76.33
71942;DHT22;59997;53.300;-6.260;2022-09-28T11:04:40;12.58;75.75
71942;DHT22;59997;53.300;-6.260;2022-09-28T11:07:30;13.16;74.33
71942;DHT22;59997;53.300;-6.260;2022-09-28T11:09:57;13.37;73.35
71942;DHT22;59997;53.300;-6.260;2022-09-28T11:12:35;14.13;71.35
71942;DHT22;59997;53.300;-6.260;2022-09-28T11:15:03;14.02;70.00
71942;DHT22;59997;53.300;-6.260;2022-09-28T11:17:31;13.78;71.69
71942;DHT22;59997;53.300;-6.260;2022-09-28T11:19:59;13.74;72.47
71942;DHT22;59997;53.300;-6.260;2022-09-28T11:22:37;14.08;70.54
71942;DHT22;59997;53.300;-6.260;2022-09-28T11:28:01;15.02;67.66
71942;DHT22;59997;53.300;-6.260;2022-09-28T11:33:19;14.49;68.38
71942;DHT22;59997;53.300;-6.260;2022-09-28T11:41:56;14.26;67.97
71942;DHT22;59997;53.300;-6.260;2022-09-28T11:44:51;14.14;67.45
71942;DHT22;59997;53.300;-6.260;2022-09-28T11:47:46;14.57;67.04
71942;DHT22;59997;53.300;-6.260;2022-09-28T11:50:57;14.49;67.53
71942;DHT22;59997;53.300;-6.260;2022-09-28T11:53:50;14.12;68.70
71942;DHT22;59997;53.300;-6.260;2022-09-28T11:56:32;13.86;69.15
71942;DHT22;59997;53.300;-6.260;2022-09-28T11:59:07;14.01;69.92
71942;DHT22;59997;53.300;-6.260;2022-09-28T12:02:23;14.02;68.61
71942;DHT22;59997;53.300;-6.260;2022-09-28T12:04:43;14.05;69.02
71942;DHT22;59997;53.300;-6.260;2022-09-28T12:07:20;14.09;69.06
71942;DHT22;59997;53.300;-6.260;2022-09-28T12:10:02;14.06;68.83
71942;DHT22;59997;53.300;-6.260;2022-09-28T12:12:59;14.12;67.95
71942;DHT22;59997;53.300;-6.260;2022-09-28T12:15:31;14.12;68.19
71942;DHT22;59997;53.300;-6.260;2022-09-28T12:18:02;14.17;69.01
71942;DHT22;59997;53.300;-6.260;2022-09-28T12:20:37;13.93;69.50
71942;DHT22;59997;53.300;-6.260;2022-09-28T12:23:37;13.72;70.37
71942;DHT22;59997;53.300;-6.260;2022-09-28T12:26:25;13.96;69.69
71942;DHT22;59997;53.300;-6.260;2022-09-28T12:28:56;13.83;68.32
71942;DHT22;59997;53.300;-6.260;2022-09-28T12:31:57;13.87;69.42
71942;DHT22;59997;53.300;-6.260;2022-09-28T12:34:24;13.65;69.73
71942;DHT22;59997;53.300;-6.260;2022-09-28T12:37:09;13.41;72.13
71942;DHT22;59997;53.300;-6.260;2022-09-28T12:45:13;11.21;84.13
71942;DHT22;59997;53.300;-6.260;2022-09-28T12:48:14;10.98;86.07
71942;DHT22;59997;53.300;-6.260;2022-09-28T13:04:43;10.80;86.98
71942;DHT22;59997;53.300;-6.260;2022-09-28T13:18:16;11.14;85.55
71942;DHT22;59997;53.300;-6.260;2022-09-28T13:23:42;11.74;84.15
71942;DHT22;59997;53.300;-6.260;2022-09-28T13:26:24;12.15;85.08
71942;DHT22;59997;53.300;-6.260;2022-09-28T13:28:54;12.23;85.15
71942;DHT22;59997;53.300;-6.260;2022-09-28T13:31:24;12.36;83.58
71942;DHT22;59997;53.300;-6.260;2022-09-28T13:33:58;12.33;84.27
71942;DHT22;59997;53.300;-6.260;2022-09-28T13:36:34;12.64;83.25
71942;DHT22;59997;53.300;-6.260;2022-09-28T13:39:00;13.26;81.81
71942;DHT22;59997;53.300;-6.260;2022-09-28T13:41:33;13.92;82.12
71942;DHT22;59997;53.300;-6.260;2022-09-28T13:46:39;13.77;80.63
71942;DHT22;59997;53.300;-6.260;2022-09-28T13:49:19;14.49;81.28
71942;DHT22;59997;53.300;-6.260;2022-09-28T13:57:43;15.45;71.26
71942;DHT22;59997;53.300;-6.260;2022-09-28T14:00:22;15.40;72.89
71942;DHT22;59997;53.300;-6.260;2022-09-28T14:03:43;14.08;74.35
71942;DHT22;59997;53.300;-6.260;2022-09-28T14:05:51;12.92;81.72
71942;DHT22;59997;53.300;-6.260;2022-09-28T14:08:38;11.30;81.13
71942;DHT22;59997;53.300;-6.260;2022-09-28T14:16:40;10.07;88.38
71942;DHT22;59997;53.300;-6.260;2022-09-28T14:19:21;10.11;88.64
71942;DHT22;59997;53.300;-6.260;2022-09-28T14:30:19;11.07;88.15
71942;DHT22;59997;53.300;-6.260;2022-09-28T14:35:38;11.78;88.41
71942;DHT22;59997;53.300;-6.260;2022-09-28T14:38:18;11.69;88.67
71942;DHT22;59997;53.300;-6.260;2022-09-28T14:41:41;11.66;88.80
71942;DHT22;59997;53.300;-6.260;2022-09-28T14:46:30;12.15;87.10
71942;DHT22;59997;53.300;-6.260;2022-09-28T14:49:03;12.40;87.51
71942;DHT22;59997;53.300;-6.260;2022-09-28T15:02:36;12.89;82.15
71942;DHT22;59997;53.300;-6.260;2022-09-28T15:04:55;12.92;83.35
71942;DHT22;59997;53.300;-6.260;2022-09-28T15:07:28;12.93;81.59
71942;DHT22;59997;53.300;-6.260;2022-09-28T15:09:58;13.12;81.68
71942;DHT22;59997;53.300;-6.260;2022-09-28T15:12:29;13.05;80.33
71942;DHT22;59997;53.300;-6.260;2022-09-28T15:15:05;12.81;79.65
71942;DHT22;59997;53.300;-6.260;2022-09-28T15:17:39;12.82;82.41
71942;DHT22;59997;53.300;-6.260;2022-09-28T15:20:32;12.84;85.25
71942;DHT22;59997;53.300;-6.260;2022-09-28T15:22:59;12.58;84.24
71942;DHT22;59997;53.300;-6.260;2022-09-28T15:25:27;12.41;84.14
71942;DHT22;59997;53.300;-6.260;2022-09-28T15:28:16;12.33;83.38
71942;DHT22;59997;53.300;-6.260;2022-09-28T15:30:42;12.40;83.84
71942;DHT22;59997;53.300;-6.260;2022-09-28T15:33:25;12.51;83.73
71942;DHT22;59997;53.300;-6.260;2022-09-28T15:36:27;12.78;82.74
71942;DHT22;59997;53.300;-6.260;2022-09-28T15:38:59;12.80;80.06
71942;DHT22;59997;53.300;-6.260;2022-09-28T15:41:25;12.74;81.59
71942;DHT22;59997;53.300;-6.260;2022-09-28T15:46:39;12.88;83.54
71942;DHT22;59997;53.300;-6.260;2022-09-28T15:49:07;12.84;82.94
71942;DHT22;59997;53.300;-6.260;2022-09-28T15:51:47;12.71;81.49
71942;DHT22;59997;53.300;-6.260;2022-09-28T15:54:16;12.51;83.76
71942;DHT22;59997;53.300;-6.260;2022-09-28T15:56:55;12.43;84.93
71942;DHT22;59997;53.300;-6.260;2022-09-28T15:59:34;12.65;81.40
71942;DHT22;59997;53.300;-6.260;2022-09-28T16:04:46;12.61;79.18
71942;DHT22;59997;53.300;-6.260;2022-09-28T16:15:05;12.11;82.13
71942;DHT22;59997;53.300;-6.260;2022-09-28T16:17:33;11.88;81.79
71942;DHT22;59997;53.300;-6.260;2022-09-28T16:20:16;11.84;82.96
71942;DHT22;59997;53.300;-6.260;2022-09-28T16:22:43;11.80;81.27
71942;DHT22;59997;53.300;-6.260;2022-09-28T16:25:18;11.80;79.19
71942;DHT22;59997;53.300;-6.260;2022-09-28T16:27:47;11.60;79.53
71942;DHT22;59997;53.300;-6.260;2022-09-28T16:30:20;11.57;79.09
71942;DHT22;59997;53.300;-6.260;2022-09-28T16:32:58;11.50;78.13
71942;DHT22;59997;53.300;-6.260;2022-09-28T16:35:26;11.47;81.64
71942;DHT22;59997;53.300;-6.260;2022-09-28T16:37:58;11.64;77.74
71942;DHT22;59997;53.300;-6.260;2022-09-28T16:40:24;11.54;79.77
71942;DHT22;59997;53.300;-6.260;2022-09-28T16:42:50;11.57;78.95
71942;DHT22;59997;53.300;-6.260;2022-09-28T16:45:21;11.73;77.75
71942;DHT22;59997;53.300;-6.260;2022-09-28T16:47:50;11.75;77.48
71942;DHT22;59997;53.300;-6.260;2022-09-28T16:50:18;11.70;76.96
71942;DHT22;59997;53.300;-6.260;2022-09-28T16:52:43;11.77;77.18
71942;DHT22;59997;53.300;-6.260;2022-09-28T16:55:27;11.74;79.34
71942;DHT22;59997;53.300;-6.260;2022-09-28T16:57:53;11.63;78.61
71942;DHT22;59997;53.300;-6.260;2022-09-28T17:00:21;11.64;78.62
71942;DHT22;59997;53.300;-6.260;2022-09-28T17:02:48;11.80;77.70
71942;DHT22;59997;53.300;-6.260;2022-09-28T17:05:15;11.73;79.22
71942;DHT22;59997;53.300;-6.260;2022-09-28T17:07:42;11.66;77.99
71942;DHT22;59997;53.300;-6.260;2022-09-28T17:10:23;11.85;77.20
71942;DHT22;59997;53.300;-6.260;2022-09-28T17:12:49;11.92;77.83
71942;DHT22;59997;53.300;-6.260;2022-09-28T17:15:15;11.98;77.15
71942;DHT22;59997;53.300;-6.260;2022-09-28T17:17:44;12.06;76.30
71942;DHT22;59997;53.300;-6.260;2022-09-28T17:20:21;12.04;78.20
71942;DHT22;59997;53.300;-6.260;2022-09-28T17:22:51;11.89;79.62
71942;DHT22;59997;53.300;-6.260;2022-09-28T17:25:19;12.02;76.84
71942;DHT22;59997;53.300;-6.260;2022-09-28T17:27:46;11.95;77.47
71942;DHT22;59997;53.300;-6.260;2022-09-28T17:30:13;11.92;78.17
71942;DHT22;59997;53.300;-6.260;2022-09-28T17:32:40;11.99;77.06
71942;DHT22;59997;53.300;-6.260;2022-09-28T17:35:10;11.97;76.37
71942;DHT22;59997;53.300;-6.260;2022-09-28T17:37:36;11.85;77.69
71942;DHT22;59997;53.300;-6.260;2022-09-28T17:40:22;11.71;78.27
71942;DHT22;59997;53.300;-6.260;2022-09-28T17:42:49;11.59;79.60
71942;DHT22;59997;53.300;-6.260;2022-09-28T17:45:16;11.59;80.78
71942;DHT22;59997;53.300;-6.260;2022-09-28T17:47:42;11.43;81.53
71942;DHT22;59997;53.300;-6.260;2022-09-28T17:50:23;11.54;79.66
71942;DHT22;59997;53.300;-6.260;2022-09-28T17:52:50;11.74;77.95
71942;DHT22;59997;53.300;-6.260;2022-09-28T17:55:23;11.73;77.84
71942;DHT22;59997;53.300;-6.260;2022-09-28T17:57:49;11.81;78.85
71942;DHT22;59997;53.300;-6.260;2022-09-28T18:00:16;11.77;78.52
71942;DHT22;59997;53.300;-6.260;2022-09-28T18:02:42;11.74;78.32
71942;DHT22;59997;53.300;-6.260;2022-09-28T18:05:09;11.69;78.28
71942;DHT22;59997;53.300;-6.260;2022-09-28T18:07:36;11.71;78.81
71942;DHT22;59997;53.300;-6.260;2022-09-28T18:10:05;11.69;79.18
71942;DHT22;59997;53.300;-6.260;2022-09-28T18:12:31;11.50;81.02
71942;DHT22;59997;53.300;-6.260;2022-09-28T18:14:56;11.52;80.62
71942;DHT22;59997;53.300;-6.260;2022-09-28T18:17:22;11.43;81.37
71942;DHT22;59997;53.300;-6.260;2022-09-28T18:19:47;11.47;80.68
71942;DHT22;59997;53.300;-6.260;2022-09-28T18:22:13;11.50;80.25
71942;DHT22;59997;53.300;-6.260;2022-09-28T18:24:38;11.56;79.30
71942;DHT22;59997;53.300;-6.260;2022-09-28T18:27:05;11.54;79.94
71942;DHT22;59997;53.300;-6.260;2022-09-28T18:29:30;11.40;80.63
71942;DHT22;59997;53.300;-6.260;2022-09-28T18:31:56;11.30;80.98
71942;DHT22;59997;53.300;-6.260;2022-09-28T18:34:21;11.16;81.76
71942;DHT22;59997;53.300;-6.260;2022-09-28T18:36:47;11.07;82.36
71942;DHT22;59997;53.300;-6.260;2022-09-28T18:39:13;11.01;82.49